Time;durP1;ratioP1;P1;durP2;ratioP2;P2;SDS_P1;SDS_P2;PMS_P1;PMS_P2;Temp;Humidity;BMP_temperature;BMP_pressure;BME280_temperature;BME280_humidity;BME280_pressure;Samples;Min_cycle;Max_cycle;Signal;HPM_P1;HPM_P2
2022/09/02 00:02:03;;;;;;;;;6.75;6.75;;;;;25.47;34.34;100557.69;5039651;28;47610;-83
2022/09/02 00:04:31;;;;;;;;;7.00;7.00;;;;;25.14;34.34;100495.19;5038890;28;47612;-85
2022/09/02 00:07:20;;;;;;;;;7.00;7.00;;;;;25.44;34.50;100535.78;5038943;28;45616;-84
2022/09/02 00:09:49;;;;;;;;;7.50;7.00;;;;;24.82;34.42;100442.34;5037493;28;45895;-84
2022/09/02 00:12:14;;;;;;;;;8.25;7.00;;;;;25.41;34.64;100530.84;5071601;28;47387;-82
2022/09/02 00:15:00;;;;;;;;;7.25;7.00;;;;;25.08;34.78;100487.94;5055029;28;46133;-85
2022/09/02 00:17:50;;;;;;;;;8.25;7.50;;;;;25.37;34.94;100532.31;5054143;28;45808;-82
2022/09/02 00:20:36;;;;;;;;;9.00;8.00;;;;;25.03;34.96;100483.22;5036605;28;46002;-86
2022/09/02 00:23:01;;;;;;;;;7.50;7.00;;;;;25.34;34.80;100530.03;5036414;28;47004;-84
2022/09/02 00:25:43;;;;;;;;;7.75;7.00;;;;;25.33;35.02;100520.31;5036129;28;47214;-84
2022/09/02 00:31:36;;;;;;;;;;;;;;;;;;;;;
2022/09/02 00:34:11;;;;;;;;;8.75;7.50;;;;;25.31;34.91;100512.50;5055593;28;76237;-84
2022/09/02 00:36:37;;;;;;;;;8.25;8.25;;;;;25.31;34.82;100509.00;5056179;28;46185;-83
2022/09/02 00:39:06;;;;;;;;;7.00;7.00;;;;;25.30;35.44;100508.16;5055139;28;45553;-87
2022/09/02 00:41:36;;;;;;;;;8.00;8.00;;;;;25.07;35.18;100468.34;5036734;28;45671;-85
2022/09/02 00:47:24;;;;;;;;;6.00;6.00;;;;;24.98;35.02;100458.03;5053764;28;46193;-83
2022/09/02 00:49:53;;;;;;;;;8.00;8.00;;;;;25.22;35.05;100507.53;5053459;28;45771;-85
2022/09/02 00:52:25;;;;;;;;;8.00;8.00;;;;;25.16;35.42;100492.25;5054127;28;45537;-84
2022/09/02 00:55:10;;;;;;;;;8.50;8.50;;;;;25.15;35.63;100502.19;5035760;28;47121;-83
2022/09/02 00:57:40;;;;;;;;;7.00;7.00;;;;;25.11;35.75;100508.16;5053426;28;46067;-82
2022/09/02 01:03:32;;;;;;;;;8.75;8.00;;;;;25.07;35.65;100505.91;5058927;28;45729;-83
2022/09/02 01:05:59;;;;;;;;;9.25;9.00;;;;;25.04;35.83;100492.09;5070155;28;46365;-82
2022/09/02 01:08:28;;;;;;;;;9.00;8.75;;;;;25.01;35.71;100490.63;5069674;28;46155;-84
2022/09/02 01:10:55;;;;;;;;;8.00;8.00;;;;;25.02;35.83;100491.44;5065912;28;45562;-86
2022/09/02 01:13:25;;;;;;;;;9.00;8.25;;;;;25.07;36.15;100492.47;5049288;28;45555;-85
2022/09/02 01:20:03;;;;;;;;;8.25;8.00;;;;;25.06;36.52;100492.69;5056830;28;46079;-85
2022/09/02 01:22:30;;;;;;;;;8.75;7.75;;;;;25.03;36.20;100491.25;5057481;28;45673;-84
2022/09/02 01:25:00;;;;;;;;;7.25;7.25;;;;;25.02;36.06;100486.91;5039293;28;46009;-84
2022/09/02 01:27:27;;;;;;;;;7.50;7.50;;;;;24.94;36.49;100472.91;5056754;28;45593;-84
2022/09/02 01:33:15;;;;;;;;;7.25;7.00;;;;;24.97;36.30;100483.19;5059087;28;45725;-81
2022/09/02 01:35:42;;;;;;;;;8.00;7.25;;;;;25.00;36.17;100494.34;5044368;28;45655;-85
2022/09/02 01:38:08;;;;;;;;;7.00;6.75;;;;;24.96;36.41;100478.88;5062569;28;45972;-82
2022/09/02 01:40:36;;;;;;;;;8.00;7.50;;;;;24.92;36.41;100473.09;5063812;28;45538;-84
2022/09/02 01:43:07;;;;;;;;;9.25;9.00;;;;;24.98;36.62;100483.00;5062700;28;45712;-86
2022/09/02 01:48:54;;;;;;;;;9.25;8.50;;;;;24.90;36.78;100472.47;5055944;28;45549;-83
2022/09/02 01:51:20;;;;;;;;;9.75;7.00;;;;;24.90;36.65;100469.78;5038474;28;46891;-83
2022/09/02 01:53:49;;;;;;;;;5.75;5.00;;;;;24.90;36.54;100468.97;5056076;28;45823;-83
2022/09/02 01:56:15;;;;;;;;;7.25;7.00;;;;;24.81;36.81;100467.50;5056854;28;46070;-82
2022/09/02 01:58:52;;;;;;;;;8.50;7.50;;;;;24.95;36.62;100498.66;5057548;28;45754;-84
2022/09/02 02:04:43;;;;;;;;;10.00;10.00;;;;;24.83;36.76;100553.91;5057095;28;45677;-85
2022/09/02 02:07:15;;;;;;;;;8.25;7.25;;;;;24.38;37.26;100475.88;5039421;28;45582;-84
2022/09/02 02:12:56;;;;;;;;;9.75;8.75;;;;;24.50;37.18;100525.16;4995033;28;45753;-86
2022/09/02 02:15:40;;;;;;;;;6.75;6.50;;;;;24.27;37.72;100484.47;4977776;28;45755;-85
2022/09/02 02:18:14;;;;;;;;;8.50;8.00;;;;;24.06;37.47;100496.13;4979197;28;46086;-83
2022/09/02 02:20:45;;;;;;;;;7.75;6.50;;;;;23.83;37.70;100464.28;4994565;28;46115;-85
2022/09/02 02:23:13;;;;;;;;;7.50;7.00;;;;;24.22;37.23;100541.31;4994020;28;47874;-84
2022/09/02 02:25:54;;;;;;;;;7.75;7.00;;;;;24.20;37.32;100521.94;4994160;28;45805;-83
2022/09/02 02:28:30;;;;;;;;;9.25;8.00;;;;;23.99;37.98;100491.75;4977831;28;45625;-84
2022/09/02 02:31:01;;;;;;;;;9.75;9.00;;;;;24.16;38.01;100531.38;4993656;28;46480;-84
2022/09/02 02:33:40;;;;;;;;;8.00;7.00;;;;;23.87;37.68;100475.41;4976887;28;46895;-85
2022/09/02 02:36:06;;;;;;;;;7.25;7.25;;;;;24.14;38.11;100529.91;4993885;28;45844;-82
2022/09/02 02:38:34;;;;;;;;;7.50;6.25;;;;;24.15;37.62;100529.72;4994052;28;45872;-84
2022/09/02 02:41:00;;;;;;;;;9.00;9.00;;;;;24.15;37.93;100520.84;4994456;28;46621;-82
2022/09/02 02:43:43;;;;;;;;;8.00;7.00;;;;;23.97;37.57;100497.28;4993943;28;46465;-82
2022/09/02 02:46:15;;;;;;;;;7.00;7.00;;;;;23.62;37.90;100451.00;4995966;28;45940;-81
2022/09/02 02:48:43;;;;;;;;;9.75;8.00;;;;;24.10;37.73;100517.94;5002786;28;45916;-84
2022/09/02 02:51:19;;;;;;;;;9.00;7.50;;;;;23.51;37.71;100426.66;5060572;28;45760;-82
2022/09/02 02:53:46;;;;;;;;;8.25;7.00;;;;;23.89;37.83;100481.41;5042817;28;47027;-83
2022/09/02 02:56:14;;;;;;;;;8.25;8.00;;;;;23.77;38.41;100465.09;5060225;28;45697;-84
2022/09/02 02:58:42;;;;;;;;;8.00;8.00;;;;;24.00;38.20;100502.25;5056567;28;45771;-83
2022/09/02 03:01:07;;;;;;;;;8.75;7.75;;;;;23.88;37.94;100490.47;5037300;28;47602;-84
2022/09/02 03:03:33;;;;;;;;;7.00;7.00;;;;;23.69;38.55;100459.91;5056774;28;45971;-84
2022/09/02 03:05:59;;;;;;;;;9.00;9.00;;;;;23.64;38.23;100461.53;5038749;28;45692;-83
2022/09/02 03:08:32;;;;;;;;;8.00;7.75;;;;;23.91;38.96;100497.28;5058485;28;45870;-82
2022/09/02 03:11:01;;;;;;;;;15.50;12.50;;;;;23.75;39.18;100485.06;5037987;28;48010;-82
2022/09/02 03:13:27;;;;;;;;;16.25;15.00;;;;;23.55;40.03;100476.88;5055955;28;46062;-83
2022/09/02 03:15:53;;;;;;;;;20.00;19.00;;;;;23.56;40.04;100477.72;5057005;28;45578;-84
2022/09/02 03:18:19;;;;;;;;;18.50;18.00;;;;;23.61;40.39;100518.09;5056179;28;45667;-82
2022/09/02 03:20:44;;;;;;;;;13.00;11.75;;;;;23.50;40.62;100491.88;5054929;28;45630;-82
2022/09/02 03:23:11;;;;;;;;;19.00;18.25;;;;;23.37;41.83;100488.03;5055740;28;45972;-81
2022/09/02 03:25:40;;;;;;;;;19.75;18.50;;;;;23.30;41.92;100483.69;5059088;28;45495;-83
2022/09/02 03:28:05;;;;;;;;;17.25;16.25;;;;;23.29;42.41;100490.88;5067747;28;45667;-81
2022/09/02 03:30:33;;;;;;;;;18.50;17.50;;;;;23.27;42.51;100505.44;5064991;28;45808;-82
2022/09/02 03:33:01;;;;;;;;;17.50;17.00;;;;;23.25;42.76;100476.25;5042916;28;47531;-84
2022/09/02 03:35:28;;;;;;;;;19.75;18.50;;;;;23.06;42.45;100454.69;5057253;28;45742;-84
2022/09/02 03:37:56;;;;;;;;;20.00;17.00;;;;;23.23;42.38;100485.47;5055424;28;45628;-85
2022/09/02 03:40:24;;;;;;;;;21.50;17.50;;;;;23.21;42.90;100485.66;5054221;28;45787;-83
2022/09/02 03:42:50;;;;;;;;;19.00;17.25;;;;;22.79;43.01;100416.25;5054812;28;46206;-82
2022/09/02 03:45:16;;;;;;;;;17.75;17.25;;;;;23.15;43.36;100470.44;5054289;28;45676;-81
2022/09/02 03:47:49;;;;;;;;;17.00;16.25;;;;;22.99;43.35;100441.31;5053217;28;45971;-82
2022/09/02 03:50:16;;;;;;;;;18.75;17.25;;;;;22.94;43.15;100439.19;5036584;28;48321;-81
2022/09/02 03:52:42;;;;;;;;;17.00;16.25;;;;;23.11;42.78;100460.28;5053290;28;48047;-84
2022/09/02 03:55:08;;;;;;;;;13.50;12.00;;;;;23.13;43.57;100458.25;5036994;28;46245;-83
2022/09/02 03:57:34;;;;;;;;;8.75;7.25;;;;;23.06;43.53;100452.84;5054758;28;45839;-81
2022/09/02 04:00:07;;;;;;;;;15.25;15.25;;;;;23.01;43.20;100442.75;5054900;28;45878;-83
2022/09/02 04:02:34;;;;;;;;;11.25;10.75;;;;;22.81;43.43;100411.53;5054626;28;46204;-81
2022/09/02 04:04:59;;;;;;;;;11.75;11.00;;;;;22.96;43.25;100449.69;5054578;28;45625;-81
2022/09/02 04:07:25;;;;;;;;;12.00;10.75;;;;;23.06;43.81;100470.72;5054136;28;45596;-82
2022/09/02 04:09:50;;;;;;;;;12.75;12.75;;;;;22.99;43.24;100462.69;5036244;28;47466;-85
2022/09/02 04:12:16;;;;;;;;;14.25;12.50;;;;;23.06;43.63;100462.72;5054066;28;46287;-83
2022/09/02 04:14:42;;;;;;;;;14.75;13.75;;;;;23.06;43.22;100466.22;5036086;28;45668;-84
2022/09/02 04:17:08;;;;;;;;;15.25;14.50;;;;;22.91;43.69;100439.59;5053786;28;45794;-84
2022/09/02 04:19:33;;;;;;;;;18.50;16.00;;;;;22.92;43.60;100438.56;5053754;28;46528;-83
2022/09/02 04:21:59;;;;;;;;;18.00;16.75;;;;;22.96;43.98;100445.19;5054373;28;45781;-82
2022/09/02 04:24:24;;;;;;;;;18.25;16.50;;;;;23.09;43.64;100455.16;5054162;28;45640;-84
2022/09/02 04:26:50;;;;;;;;;19.50;16.75;;;;;23.10;43.50;100453.31;5054116;28;45763;-84
2022/09/02 04:29:16;;;;;;;;;20.25;19.00;;;;;22.79;44.12;100400.22;5053464;28;46251;-81
2022/09/02 04:31:47;;;;;;;;;19.25;18.25;;;;;23.13;44.43;100444.91;5054517;28;46068;-84
2022/09/02 04:34:27;;;;;;;;;18.50;18.25;;;;;22.73;44.86;100371.59;5057743;28;45751;-85
2022/09/02 04:37:27;;;;;;;;;18.25;17.50;;;;;22.58;44.98;100360.97;5042158;28;45681;-82
2022/09/02 04:40:21;;;;;;;;;15.50;14.75;;;;;23.12;45.74;100467.28;5060027;28;46371;-83
2022/09/02 04:43:22;;;;;;;;;15.50;14.25;;;;;23.10;45.25;100472.84;4981196;28;47202;-84
2022/09/02 04:46:20;;;;;;;;;13.25;12.50;;;;;22.58;45.46;100396.53;4981007;28;45629;-84
2022/09/02 04:49:00;;;;;;;;;14.50;13.25;;;;;22.90;45.83;100445.94;4963752;28;45738;-84
2022/09/02 04:51:38;;;;;;;;;11.75;10.75;;;;;22.85;46.57;100426.16;4980027;28;48023;-83
2022/09/02 04:54:26;;;;;;;;;13.75;12.75;;;;;22.56;47.17;100373.72;4996041;28;46216;-82
2022/09/02 04:57:16;;;;;;;;;13.00;12.00;;;;;22.62;47.10;100364.13;4978862;28;45802;-84
2022/09/02 04:59:45;;;;;;;;;12.25;11.75;;;;;23.07;47.24;100435.81;4937001;28;45879;-83
2022/09/02 05:02:10;;;;;;;;;13.50;12.75;;;;;22.99;48.37;100425.28;4920278;28;48172;-83
2022/09/02 05:04:36;;;;;;;;;13.50;12.50;;;;;23.02;48.72;100430.22;4936992;28;46007;-82
2022/09/02 05:07:03;;;;;;;;;11.75;11.25;;;;;22.99;48.38;100427.94;4920710;28;45868;-81
2022/09/02 05:09:31;;;;;;;;;14.00;13.25;;;;;22.88;49.24;100413.28;4936290;28;45753;-80
2022/09/02 05:11:56;;;;;;;;;14.75;13.00;;;;;22.94;49.06;100435.72;4935979;28;45845;-82
2022/09/02 05:14:24;;;;;;;;;12.00;11.50;;;;;22.89;49.44;100428.25;4935743;28;46229;-80
2022/09/02 05:16:52;;;;;;;;;15.00;13.25;;;;;22.76;50.32;100413.97;4935685;28;45744;-82
2022/09/02 05:19:34;;;;;;;;;10.75;10.50;;;;;22.57;50.63;100402.06;4954859;28;45880;-80
2022/09/02 05:22:00;;;;;;;;;27.25;22.25;;;;;22.67;50.38;100425.78;4977352;28;46423;-81
2022/09/02 05:24:46;;;;;;;;;14.25;12.25;;;;;22.66;50.65;100438.31;4993419;28;45822;-82
2022/09/02 05:27:28;;;;;;;;;13.25;11.00;;;;;22.26;50.76;100393.53;4976865;28;45767;-84
2022/09/02 05:29:55;;;;;;;;;12.50;11.00;;;;;22.35;50.97;100414.56;4994195;28;46008;-84
2022/09/02 05:32:24;;;;;;;;;11.50;10.50;;;;;22.00;51.25;100365.56;4994205;28;48125;-81
2022/09/02 05:34:55;;;;;;;;;13.00;12.00;;;;;22.40;51.17;100438.84;4995414;28;47293;-82
2022/09/02 05:37:24;;;;;;;;;10.00;8.75;;;;;22.21;50.63;100411.97;5025724;28;45674;-84
2022/09/02 05:39:55;;;;;;;;;12.50;12.25;;;;;22.41;51.28;100451.19;5040834;28;45570;-85
2022/09/02 05:42:21;;;;;;;;;12.50;11.75;;;;;21.95;51.07;100380.50;5057904;28;45821;-82
2022/09/02 05:44:47;;;;;;;;;13.25;12.50;;;;;22.12;51.16;100401.44;5037486;28;48117;-83
2022/09/02 05:47:12;;;;;;;;;12.25;11.50;;;;;22.21;50.85;100419.97;5055607;28;45658;-83
2022/09/02 05:49:38;;;;;;;;;13.75;12.50;;;;;22.25;50.81;100430.09;5056265;28;45774;-85
2022/09/02 05:52:10;;;;;;;;;11.00;9.50;;;;;22.34;50.52;100444.16;5056162;28;45763;-85
2022/09/02 05:54:38;;;;;;;;;12.00;9.25;;;;;22.04;50.96;100393.53;5038444;28;45897;-83
2022/09/02 05:57:09;;;;;;;;;11.00;10.25;;;;;22.21;50.57;100419.97;5038182;28;45951;-85
2022/09/02 05:59:41;;;;;;;;;9.25;9.00;;;;;22.23;50.97;100420.63;5038279;28;45630;-83
2022/09/02 06:02:08;;;;;;;;;12.00;12.00;;;;;21.98;50.30;100388.94;5056202;28;46350;-84
2022/09/02 06:04:47;;;;;;;;;14.00;13.75;;;;;22.26;50.61;100444.25;5056168;28;46200;-84
2022/09/02 06:07:13;;;;;;;;;13.00;11.50;;;;;22.13;50.93;100434.28;5037528;28;46039;-84
2022/09/02 06:09:43;;;;;;;;;12.50;12.00;;;;;22.21;50.76;100463.50;5037428;28;45610;-84
2022/09/02 06:12:36;;;;;;;;;13.25;12.25;;;;;22.21;50.96;100458.16;5054179;28;47220;-84
2022/09/02 06:15:04;;;;;;;;;12.50;10.00;;;;;22.21;50.77;100438.66;5037633;28;45539;-83
2022/09/02 06:17:41;;;;;;;;;11.75;10.75;;;;;22.11;50.24;100426.44;5037538;28;45732;-82
2022/09/02 06:20:06;;;;;;;;;11.50;11.00;;;;;;;;5055403;28;45705;-82
2022/09/02 06:22:32;;;;;;;;;13.25;13.00;;;;;21.96;50.40;100414.16;5055436;28;47280;-82
2022/09/02 06:24:57;;;;;;;;;12.50;12.25;;;;;22.14;50.25;100441.25;5037996;28;47585;-81
2022/09/02 06:27:23;;;;;;;;;14.25;12.75;;;;;21.95;50.23;100417.84;5037824;28;45716;-83
2022/09/02 06:29:48;;;;;;;;;12.50;11.50;;;;;22.09;50.45;100433.81;5056489;28;45550;-84
2022/09/02 06:32:14;;;;;;;;;13.50;12.00;;;;;22.09;50.44;100438.31;5055335;28;46429;-83
2022/09/02 06:34:39;;;;;;;;;13.25;12.00;;;;;22.12;50.57;100430.78;5055157;28;45541;-82
2022/09/02 06:37:04;;;;;;;;;12.00;10.75;;;;;22.10;50.52;100437.31;5054523;28;45646;-83
2022/09/02 06:39:30;;;;;;;;;12.50;11.00;;;;;22.07;50.63;100422.50;5054801;28;45570;-81
2022/09/02 06:41:55;;;;;;;;;15.50;14.25;;;;;21.94;50.60;100403.66;5036441;28;46317;-83
2022/09/02 06:44:21;;;;;;;;;11.00;10.00;;;;;22.03;50.30;100431.88;5054423;28;46120;-81
2022/09/02 06:46:52;;;;;;;;;13.50;11.75;;;;;22.14;50.33;100443.91;5054365;28;45555;-80
2022/09/02 06:49:18;;;;;;;;;11.75;11.75;;;;;22.05;49.90;100431.72;5054712;28;45761;-82
2022/09/02 06:51:46;;;;;;;;;11.25;11.25;;;;;22.11;50.50;100437.13;5054536;28;46239;-82
2022/09/02 06:54:17;;;;;;;;;12.25;10.75;;;;;22.10;50.08;100440.81;5054628;28;46010;-82
2022/09/02 06:56:44;;;;;;;;;16.75;14.00;;;;;22.10;49.79;100438.13;5053886;28;45645;-81
2022/09/02 06:59:09;;;;;;;;;12.25;11.25;;;;;22.00;49.75;100413.59;5054647;28;45537;-81
2022/09/02 07:01:35;;;;;;;;;13.50;11.50;;;;;21.97;50.15;100416.63;5036910;28;48286;-80
2022/09/02 07:06:48;;;;;;;;;12.50;11.75;;;;;22.10;50.08;100434.63;5054452;28;45606;-81
2022/09/02 07:09:16;;;;;;;;;14.25;12.75;;;;;22.01;49.89;100428.59;5054713;28;45840;-81
2022/09/02 07:11:42;;;;;;;;;13.50;11.50;;;;;21.97;50.17;100421.16;5054095;28;45666;-83
2022/09/02 07:14:07;;;;;;;;;12.00;11.00;;;;;22.02;50.03;100427.59;5054434;28;46364;-83
2022/09/02 07:16:36;;;;;;;;;11.00;9.75;;;;;21.78;49.89;100387.84;5055006;28;45713;-82
2022/09/02 07:19:02;;;;;;;;;12.00;11.50;;;;;21.75;49.41;100388.25;5054073;28;45747;-82
2022/09/02 07:21:29;;;;;;;;;13.75;12.75;;;;;22.03;49.26;100431.88;5055328;28;46823;-81
2022/09/02 07:23:58;;;;;;;;;10.75;9.75;;;;;22.09;49.63;100432.97;5036872;28;46372;-82
2022/09/02 07:26:24;;;;;;;;;11.00;10.75;;;;;22.02;49.24;100405.41;5055290;28;45643;-82
2022/09/02 07:28:50;;;;;;;;;10.75;10.75;;;;;22.04;49.50;100408.69;5055145;28;45694;-82
2022/09/02 07:31:16;;;;;;;;;10.50;10.50;;;;;21.92;49.16;100370.97;5054914;28;45715;-80
2022/09/02 07:37:03;;;;;;;;;13.50;13.25;;;;;;;;5054568;28;45745;-82
2022/09/02 07:39:28;;;;;;;;;11.00;11.00;;;;;21.99;49.34;100393.25;5055185;28;45587;-80
2022/09/02 07:41:54;;;;;;;;;11.75;11.25;;;;;22.04;49.09;100393.53;5054379;28;45811;-83
2022/09/02 07:44:21;;;;;;;;;14.00;14.00;;;;;22.26;49.01;100439.75;5054667;28;46168;-80
2022/09/02 07:46:46;;;;;;;;;10.00;9.25;;;;;22.06;49.16;100399.50;5053919;28;45796;-82
2022/09/02 07:49:12;;;;;;;;;13.50;12.75;;;;;22.05;48.35;100392.50;5057099;28;45523;-82
2022/09/02 07:51:42;;;;;;;;;11.00;11.00;;;;;22.11;48.75;100407.78;5057209;28;46679;-84
2022/09/02 07:54:10;;;;;;;;;12.75;11.75;;;;;22.37;48.43;100444.59;5058505;28;46258;-82
2022/09/02 07:56:35;;;;;;;;;11.00;11.00;;;;;22.40;48.42;100446.88;5056644;28;45574;-82
2022/09/02 07:59:01;;;;;;;;;12.25;10.50;;;;;22.42;48.03;100438.69;5055977;28;45809;-81
2022/09/02 08:01:27;;;;;;;;;11.00;11.00;;;;;22.33;48.25;100429.97;5055290;28;46665;-82
2022/09/02 08:07:15;;;;;;;;;10.50;10.00;;;;;22.50;47.16;100457.25;5056834;28;45633;-80
2022/09/02 08:09:41;;;;;;;;;9.50;9.50;;;;;22.53;47.51;100465.72;5060320;28;45514;-82
2022/09/02 08:12:06;;;;;;;;;9.75;8.50;;;;;22.56;47.61;100459.97;5060881;28;45443;-83
2022/09/02 08:14:32;;;;;;;;;11.00;9.00;;;;;22.49;46.68;100450.25;5060711;28;46643;-84
2022/09/02 08:16:57;;;;;;;;;9.00;9.00;;;;;22.58;47.13;100471.31;5060308;28;45770;-82
2022/09/02 08:19:23;;;;;;;;;10.00;9.50;;;;;22.45;46.78;100454.34;5060188;28;45708;-83
2022/09/02 08:21:50;;;;;;;;;10.50;9.00;;;;;22.39;46.56;100437.22;5057059;28;47353;-83
2022/09/02 08:24:15;;;;;;;;;9.50;8.50;;;;;22.53;46.50;100470.22;5057398;28;45749;-82
2022/09/02 08:26:41;;;;;;;;;9.50;9.50;;;;;22.62;46.31;100495.78;5057691;28;45802;-80
2022/09/02 08:29:07;;;;;;;;;9.50;8.50;;;;;22.71;46.83;100507.19;5057862;28;45772;-83
2022/09/02 08:31:34;;;;;;;;;11.00;10.25;;;;;22.36;46.18;100464.28;5057706;28;46010;-83
2022/09/02 08:37:21;;;;;;;;;11.50;10.75;;;;;22.47;47.79;100519.88;5056567;28;45711;-83
2022/09/02 08:39:47;;;;;;;;;10.50;10.00;;;;;22.37;47.66;100510.50;5057051;28;45707;-83
2022/09/02 08:42:29;;;;;;;;;12.25;11.25;;;;;22.40;48.91;100532.31;5038655;28;47730;-84
2022/09/02 08:45:02;;;;;;;;;9.00;9.00;;;;;22.22;49.25;100510.53;5072506;28;46419;-83
2022/09/02 08:47:30;;;;;;;;;14.75;12.75;;;;;22.08;49.34;100514.03;5038256;28;45892;-83
2022/09/02 08:50:00;;;;;;;;;13.50;12.25;;;;;22.16;49.85;100544.16;5057234;28;45696;-83
2022/09/02 08:52:35;;;;;;;;;11.50;10.75;;;;;22.13;49.86;100535.69;5057510;28;45659;-82
2022/09/02 08:55:01;;;;;;;;;14.00;13.25;;;;;22.10;50.13;100528.88;5057679;28;45979;-81
2022/09/02 08:57:29;;;;;;;;;12.25;12.25;;;;;22.11;50.47;100529.69;5057595;28;45678;-82
2022/09/02 08:59:57;;;;;;;;;12.00;12.00;;;;;22.08;50.44;100519.38;5057649;28;45663;-82
2022/09/02 09:02:48;;;;;;;;;14.25;14.25;;;;;22.08;50.36;100522.03;5057494;28;45826;-84
2022/09/02 09:05:36;;;;;;;;;12.75;10.75;;;;;22.08;50.43;100528.22;5057314;28;46539;-83
2022/09/02 09:08:20;;;;;;;;;14.00;13.00;;;;;22.06;49.79;100519.59;5056582;28;45763;-82
2022/09/02 09:10:59;;;;;;;;;16.00;14.00;;;;;22.05;50.17;100517.09;5058141;28;45705;-84
2022/09/02 09:13:43;;;;;;;;;14.00;13.00;;;;;22.01;50.16;100516.66;5057745;28;45612;-82
2022/09/02 09:16:56;;;;;;;;;15.50;14.75;;;;;22.00;50.08;100495.47;5056968;28;46507;-83
2022/09/02 09:19:47;;;;;;;;;13.50;12.75;;;;;22.01;50.17;100511.31;4993168;28;45844;-82
2022/09/02 09:22:17;;;;;;;;;16.00;15.00;;;;;21.98;50.01;100497.50;4995037;28;45767;-83
2022/09/02 09:24:46;;;;;;;;;16.25;14.50;;;;;22.05;50.22;100509.91;4994982;28;46454;-84
2022/09/02 09:27:14;;;;;;;;;14.75;13.75;;;;;21.94;50.13;100488.19;4994353;28;46174;-82
2022/09/02 09:29:39;;;;;;;;;16.25;14.25;;;;;22.08;50.50;100509.53;4994922;28;45831;-85
2022/09/02 09:35:17;;;;;;;;;14.50;14.00;;;;;22.12;49.92;100480.66;4994036;28;46134;-85
2022/09/02 09:37:47;;;;;;;;;17.25;15.00;;;;;22.18;49.86;100482.59;4994563;28;45920;-84
2022/09/02 09:40:24;;;;;;;;;14.50;13.50;;;;;22.42;49.68;100498.25;4994974;28;45634;-84
2022/09/02 09:43:04;;;;;;;;;14.75;14.00;;;;;22.54;49.02;100494.06;4995320;28;45673;-83
2022/09/02 09:45:33;;;;;;;;;16.75;14.75;;;;;22.63;48.77;100483.25;4997224;28;46664;-83
2022/09/02 09:51:20;;;;;;;;;14.50;14.00;;;;;22.73;48.78;100470.44;4995772;28;45798;-83
2022/09/02 09:53:46;;;;;;;;;14.25;11.25;;;;;22.80;49.11;100471.34;4996013;28;45731;-84
2022/09/02 09:56:14;;;;;;;;;14.25;12.50;;;;;22.91;48.84;100482.34;5036816;28;46491;-84
2022/09/02 09:58:40;;;;;;;;;17.00;15.75;;;;;22.98;48.21;100477.06;5061033;28;46342;-84
2022/09/02 10:01:16;;;;;;;;;14.25;14.25;;;;;22.90;48.64;100453.13;5058161;28;45588;-83
2022/09/02 10:07:03;;;;;;;;;16.50;15.25;;;;;23.17;48.30;100463.03;5057057;28;45920;-82
2022/09/02 10:09:34;;;;;;;;;17.00;14.75;;;;;23.34;47.96;100475.06;5059713;28;45558;-84
2022/09/02 10:12:08;;;;;;;;;18.25;16.00;;;;;23.39;47.71;100478.00;5067549;28;45665;-83
2022/09/02 10:14:51;;;;;;;;;18.25;16.25;;;;;23.44;48.27;100469.38;5064018;28;45716;-82
2022/09/02 10:24:32;;;;;;;;;16.50;15.75;;;;;23.57;48.09;100469.50;5036793;28;45647;-83
2022/09/02 10:26:59;;;;;;;;;16.50;16.25;;;;;23.55;47.94;100465.34;5035783;28;45637;-84
2022/09/02 10:29:38;;;;;;;;;16.50;16.00;;;;;23.60;47.46;100455.72;5036074;28;46600;-81
2022/09/02 10:32:34;;;;;;;;;16.25;14.75;;;;;23.61;47.72;100462.72;5017698;28;47201;-83
2022/09/02 10:38:51;;;;;;;;;16.25;15.75;;;;;23.58;47.58;100440.91;5035531;28;45555;-82
2022/09/02 10:41:41;;;;;;;;;17.25;16.25;;;;;23.68;47.82;100460.09;5035253;28;46841;-82
2022/09/02 10:44:06;;;;;;;;;17.75;15.00;;;;;23.73;47.53;100457.66;5035676;28;46352;-82
2022/09/02 10:46:53;;;;;;;;;15.75;15.25;;;;;23.77;47.63;100456.22;5035021;28;45652;-82
2022/09/02 10:49:25;;;;;;;;;19.50;19.00;;;;;23.80;47.73;100455.84;5034997;28;45787;-83
2022/09/02 10:52:04;;;;;;;;;17.25;15.25;;;;;23.77;47.65;100443.69;5035172;28;45730;-83
2022/09/02 10:54:44;;;;;;;;;15.50;15.25;;;;;23.87;47.75;100450.50;5033372;28;45944;-83
2022/09/02 10:57:44;;;;;;;;;16.25;16.00;;;;;23.83;47.53;100437.53;5035091;28;45714;-82
2022/09/02 11:00:17;;;;;;;;;17.75;17.25;;;;;23.90;47.78;100444.78;5035743;28;45771;-81
2022/09/02 11:02:47;;;;;;;;;18.25;16.75;;;;;23.80;47.39;100429.09;5035529;28;46417;-81
2022/09/02 11:05:50;;;;;;;;;19.25;17.25;;;;;23.94;47.45;100444.16;5035294;28;45661;-82
2022/09/02 11:08:26;;;;;;;;;17.25;15.75;;;;;23.97;47.08;100451.78;4953546;28;45714;-81
2022/09/02 11:11:04;;;;;;;;;16.00;15.00;;;;;23.98;47.44;100442.72;4953741;28;45673;-83
2022/09/02 11:13:43;;;;;;;;;19.25;16.00;;;;;24.02;47.44;100440.50;4937121;28;47580;-81
2022/09/02 11:16:17;;;;;;;;;17.75;16.00;;;;;24.02;47.94;100435.94;4953383;28;46611;-82
2022/09/02 11:22:38;;;;;;;;;18.50;16.75;;;;;24.04;47.55;100423.19;4955822;28;46071;-83
2022/09/02 11:25:23;;;;;;;;;19.00;16.75;;;;;24.05;47.65;100416.81;4973010;28;47014;-84
2022/09/02 11:28:21;;;;;;;;;19.25;17.75;;;;;24.08;47.59;100413.72;4956442;28;48561;-83
2022/09/02 11:30:56;;;;;;;;;20.00;18.50;;;;;24.00;47.53;100389.00;4973216;28;45604;-83
2022/09/02 11:33:38;;;;;;;;;21.50;19.25;;;;;24.07;48.28;100406.75;4973009;28;45755;-83
2022/09/02 11:36:04;;;;;;;;;21.50;20.25;;;;;24.16;47.74;100412.72;4973360;28;46380;-83
2022/09/02 11:38:42;;;;;;;;;24.25;21.00;;;;;24.06;47.78;100394.38;4973837;28;45786;-82
2022/09/02 11:41:33;;;;;;;;;20.25;19.25;;;;;24.07;48.08;100387.19;4974189;28;45758;-81
2022/09/02 11:44:30;;;;;;;;;21.00;20.00;;;;;24.16;48.24;100394.00;4979443;28;45808;-81
2022/09/02 11:47:25;;;;;;;;;21.00;20.00;;;;;24.17;48.95;100395.66;5036252;28;46697;-81
2022/09/02 11:50:15;;;;;;;;;23.25;20.50;;;;;24.19;48.77;100382.91;4973510;28;46187;-83
2022/09/02 11:52:50;;;;;;;;;19.75;18.25;;;;;24.21;48.70;100386.22;4972445;28;45751;-85
2022/09/02 11:55:21;;;;;;;;;22.75;21.25;;;;;24.22;48.28;100372.63;4972513;28;45835;-82
2022/09/02 11:57:56;;;;;;;;;21.00;18.75;;;;;24.16;47.93;100364.53;4971907;28;45765;-81
2022/09/02 12:00:35;;;;;;;;;19.50;18.25;;;;;24.10;47.85;100352.78;4972237;28;46094;-80
2022/09/02 12:03:03;;;;;;;;;17.25;17.00;;;;;24.23;48.37;100362.75;4972250;28;45692;-81
2022/09/02 12:05:29;;;;;;;;;18.75;17.50;;;;;24.40;47.79;100387.28;4972136;28;45772;-83
2022/09/02 12:07:57;;;;;;;;;17.75;16.75;;;;;24.41;47.42;100376.34;4971535;28;46258;-84
2022/09/02 12:10:42;;;;;;;;;16.00;15.00;;;;;24.55;47.54;100379.88;4973309;28;45954;-81
2022/09/02 12:13:29;;;;;;;;;18.00;18.00;;;;;24.47;47.50;100359.47;4964619;28;45770;-82
2022/09/02 12:16:18;;;;;;;;;18.00;16.00;;;;;24.71;47.48;100375.97;4974646;28;45695;-83
2022/09/02 12:22:16;;;;;;;;;16.00;15.25;;;;;24.83;47.23;100393.06;4971252;28;45777;-82
2022/09/02 12:25:02;;;;;;;;;15.00;15.00;;;;;24.83;46.82;100383.16;4955539;28;45669;-83
2022/09/02 12:27:32;;;;;;;;;16.50;15.75;;;;;24.92;46.98;100391.84;5023236;28;45719;-82
2022/09/02 12:29:58;;;;;;;;;16.25;15.00;;;;;24.97;46.77;100381.31;5033336;28;46705;-83
2022/09/02 12:32:47;;;;;;;;;13.25;13.00;;;;;25.01;46.55;100383.38;5033158;28;46086;-81
2022/09/02 12:38:35;;;;;;;;;14.75;13.50;;;;;25.09;45.98;100366.25;5032884;28;45670;-82
2022/09/02 12:41:00;;;;;;;;;12.75;12.00;;;;;25.13;46.20;100374.69;5033007;28;46180;-82
2022/09/02 12:44:24;;;;;;;;;14.25;14.00;;;;;25.14;46.16;100365.63;5032829;28;46014;-84
2022/09/02 12:47:05;;;;;;;;;11.00;10.25;;;;;25.03;45.76;100333.06;4951809;28;45768;-85
2022/09/02 12:49:52;;;;;;;;;11.75;10.75;;;;;25.21;45.52;100367.25;4971286;28;45702;-83
2022/09/02 12:52:33;;;;;;;;;13.00;12.75;;;;;25.23;45.73;100367.88;5015283;28;45788;-85